Time;durP1;ratioP1;P1;durP2;ratioP2;P2;SDS_P1;SDS_P2;PMS_P1;PMS_P2;Temp;Humidity;BMP_temperature;BMP_pressure;BME280_temperature;BME280_humidity;BME280_pressure;Samples;Min_cycle;Max_cycle;Signal;HPM_P1;HPM_P2
2022/03/25 07:58:44;;;;;;;61.80;41.20;;;;;;;9.05;62.63;102928.16;5274765;28;20376;-67
2022/03/25 08:01:15;;;;;;;61.25;41.30;;;;;;;9.16;61.51;102936.78;5267399;28;20480;-67
2022/03/25 08:03:47;;;;;;;61.33;44.42;;;;;;;9.30;61.85;102941.06;5251463;28;20024;-68
2022/03/25 08:06:18;;;;;;;65.57;45.13;;;;;;;9.29;60.68;102942.16;5245036;28;20080;-67
2022/03/25 08:08:49;;;;;;;56.97;41.60;;;;;;;9.63;64.68;102931.53;5253268;28;20029;-67
2022/03/25 08:11:20;;;;;;;61.30;43.08;;;;;;;9.62;62.42;102943.69;5241297;28;20026;-66
2022/03/25 08:13:52;;;;;;;63.90;45.40;;;;;;;9.57;61.52;102942.44;5241879;28;20021;-67
2022/03/25 08:16:24;;;;;;;60.72;43.17;;;;;;;9.78;61.21;102941.13;5259061;28;20104;-66
2022/03/25 08:18:55;;;;;;;62.05;43.88;;;;;;;9.86;60.49;102942.72;5242718;28;20519;-66
2022/03/25 08:21:26;;;;;;;60.20;45.60;;;;;;;9.91;59.03;102944.78;5244545;28;20033;-66
2022/03/25 08:29:38;;;;;;;62.63;40.35;;;;;;;10.33;56.68;102948.50;5250373;28;20436;-65
2022/03/25 08:32:10;;;;;;;60.28;43.75;;;;;;;10.33;57.37;102958.72;5241483;28;20029;-66
2022/03/25 08:34:41;;;;;;;57.15;43.65;;;;;;;10.37;55.82;102959.94;5242630;28;20022;-66
2022/03/25 08:37:12;;;;;;;55.08;40.17;;;;;;;10.33;54.03;102959.59;5257896;28;20481;-66
2022/03/25 08:39:44;;;;;;;54.13;38.78;;;;;;;10.41;54.51;102966.72;5266277;28;20029;-66
2022/03/25 08:42:16;;;;;;;58.85;38.75;;;;;;;10.40;53.62;102962.25;5245106;28;20029;-66
2022/03/25 08:44:48;;;;;;;50.05;37.83;;;;;;;10.61;54.73;102963.63;5238034;28;20025;-67
2022/03/25 08:47:19;;;;;;;52.88;37.95;;;;;;;10.59;53.47;102969.41;5237214;28;20034;-71
2022/03/25 08:49:50;;;;;;;49.72;37.00;;;;;;;10.63;52.15;102965.09;5237475;28;20029;-70
2022/03/25 08:52:21;;;;;;;50.22;37.50;;;;;;;10.64;51.74;102966.78;5250399;28;20051;-71
2022/03/25 08:54:53;;;;;;;58.00;41.17;;;;;;;10.59;51.99;102963.03;5240947;28;20538;-71
2022/03/25 08:57:24;;;;;;;54.50;40.28;;;;;;;10.70;51.94;102964.97;5251596;28;20468;-75
2022/03/25 08:59:55;;;;;;;54.42;41.17;;;;;;;10.73;51.73;102972.81;5257680;28;20049;-70
2022/03/25 09:02:27;;;;;;;49.42;36.92;;;;;;;10.83;51.92;102970.28;5258040;28;20028;-72
2022/03/25 09:04:58;;;;;;;59.75;40.13;;;;;;;10.71;51.92;102968.56;5256552;28;20097;-71
2022/03/25 09:07:29;;;;;;;56.28;39.65;;;;;;;10.84;50.78;102977.53;5255222;28;20056;-71
2022/03/25 09:10:01;;;;;;;51.20;38.35;;;;;;;10.98;50.72;102974.53;5230255;28;20080;-71
2022/03/25 09:12:35;;;;;;;54.15;38.55;;;;;;;11.00;50.50;102986.25;5226437;28;20501;-70
2022/03/25 09:15:08;;;;;;;52.72;37.45;;;;;;;11.05;51.07;102978.88;5238903;28;20484;-70
2022/03/25 09:17:41;;;;;;;55.97;39.25;;;;;;;11.18;50.59;102977.78;5239451;28;20052;-68
2022/03/25 09:20:13;;;;;;;54.45;39.90;;;;;;;11.28;51.02;102978.03;5225509;28;20112;-70
2022/03/25 09:22:44;;;;;;;49.63;38.78;;;;;;;11.38;50.52;102976.59;5233084;28;20458;-70
2022/03/25 09:25:16;;;;;;;53.53;40.38;;;;;;;11.41;49.86;102987.19;5231669;28;20025;-69
2022/03/25 09:27:47;;;;;;;56.05;38.75;;;;;;;11.40;49.80;102985.50;5243916;28;20508;-70
2022/03/25 09:30:19;;;;;;;51.67;37.25;;;;;;;11.43;49.36;102985.03;5225151;28;20120;-70
2022/03/25 09:32:50;;;;;;;54.20;36.00;;;;;;;11.56;49.72;102986.69;5222011;28;20169;-69
2022/03/25 09:35:22;;;;;;;47.65;34.92;;;;;;;11.56;49.03;102984.75;5225006;28;20033;-70
2022/03/25 09:37:53;;;;;;;49.90;36.58;;;;;;;11.66;48.76;102979.44;5242760;28;20041;-70
2022/03/25 09:40:26;;;;;;;51.85;37.13;;;;;;;11.77;49.10;102979.63;5242435;28;20021;-70
2022/03/25 09:42:58;;;;;;;53.95;39.97;;;;;;;11.87;48.61;102980.72;5237156;28;20112;-70
2022/03/25 09:45:30;;;;;;;48.22;36.47;;;;;;;11.95;47.69;102976.72;5225094;28;20165;-69
2022/03/25 09:48:03;;;;;;;51.55;33.42;;;;;;;12.02;48.31;102984.91;5222444;28;20029;-70
2022/03/25 09:50:37;;;;;;;45.97;32.05;;;;;;;12.10;46.52;102977.00;5222777;28;20470;-71
2022/03/25 09:53:08;;;;;;;44.38;30.70;;;;;;;12.18;46.36;102987.72;5236478;28;20060;-72
2022/03/25 09:55:42;;;;;;;51.08;32.30;;;;;;;12.30;46.12;102978.50;5242894;28;20473;-71
2022/03/25 09:58:22;;;;;;;54.50;35.40;;;;;;;12.36;44.53;102983.06;5233295;28;20042;-71
2022/03/25 10:00:54;;;;;;;44.85;32.13;;;;;;;12.27;45.61;102979.84;5237450;28;20029;-72
2022/03/25 10:03:31;;;;;;;44.45;30.33;;;;;;;12.30;44.27;102973.78;5241138;28;20503;-70
2022/03/25 10:06:09;;;;;;;39.40;30.15;;;;;;;12.39;45.33;102977.00;5242381;28;20021;-69
2022/03/25 10:08:42;;;;;;;46.38;33.10;;;;;;;12.50;45.75;102972.44;5241495;28;20036;-70
2022/03/25 10:11:21;;;;;;;45.72;32.60;;;;;;;12.62;45.25;102976.00;5242809;28;20095;-71
2022/03/25 10:14:15;;;;;;;41.90;30.00;;;;;;;12.74;45.03;102973.16;5228384;28;20029;-70
2022/03/25 10:16:48;;;;;;;41.60;29.80;;;;;;;12.77;44.84;102972.66;5242545;28;20038;-69
2022/03/25 10:19:23;;;;;;;49.75;31.92;;;;;;;12.78;44.52;102974.31;5222201;28;20034;-70
2022/03/25 10:21:55;;;;;;;43.38;31.88;;;;;;;12.81;44.31;102968.28;5236394;28;20026;-70
2022/03/25 10:24:40;;;;;;;45.25;29.83;;;;;;;12.87;44.55;102972.81;5230209;28;20037;-67
2022/03/25 10:27:13;;;;;;;35.17;26.63;;;;;;;13.04;42.31;102970.03;5231645;28;20372;-69
2022/03/25 10:29:46;;;;;;;36.65;26.73;;;;;;;13.16;42.37;102969.91;5240095;28;20037;-69
2022/03/25 10:32:20;;;;;;;33.97;25.63;;;;;;;13.27;41.66;102963.44;5222032;28;20026;-70
2022/03/25 10:35:06;;;;;;;37.97;28.33;;;;;;;13.34;42.92;102963.25;5226317;28;20029;-72
2022/03/25 10:37:54;;;;;;;38.92;27.65;;;;;;;13.35;42.10;102963.00;5237876;28;20029;-74
2022/03/25 10:40:25;;;;;;;41.78;30.02;;;;;;;13.54;42.68;102965.47;5224316;28;20152;-72
2022/03/25 10:43:08;;;;;;;37.22;26.27;;;;;;;13.57;41.55;102959.38;5239015;28;20104;-71
2022/03/25 10:45:40;;;;;;;38.83;28.45;;;;;;;13.51;42.35;102961.25;5257675;28;20119;-71
2022/03/25 10:48:22;;;;;;;38.97;26.27;;;;;;;13.64;41.35;102957.25;5247317;28;20029;-70
2022/03/25 10:51:07;;;;;;;33.70;25.33;;;;;;;13.76;41.55;102952.38;5234538;28;20076;-71
2022/03/25 10:53:40;;;;;;;34.72;26.17;;;;;;;13.64;40.46;102954.47;5221215;28;20033;-69
2022/03/25 10:56:11;;;;;;;37.25;25.05;;;;;;;13.53;40.16;102950.69;5220508;28;20033;-70
2022/03/25 10:58:54;;;;;;;41.70;25.95;;;;;;;13.71;40.02;102952.31;5221495;28;20476;-69
2022/03/25 11:01:25;;;;;;;33.08;23.20;;;;;;;13.88;39.91;102950.31;5230743;28;20037;-70
2022/03/25 11:03:57;;;;;;;33.10;22.75;;;;;;;14.00;39.49;102952.94;5240614;28;20119;-70
2022/03/25 11:06:30;;;;;;;33.45;23.83;;;;;;;13.99;39.23;102945.69;5225103;28;20018;-70
2022/03/25 11:09:01;;;;;;;33.90;23.65;;;;;;;14.06;38.41;102951.91;5237228;28;20044;-70
2022/03/25 11:11:34;;;;;;;30.67;20.77;;;;;;;14.18;37.61;102948.94;5241207;28;20021;-69
2022/03/25 11:14:05;;;;;;;39.72;25.75;;;;;;;14.18;39.05;102953.69;5241326;28;20025;-69
2022/03/25 11:16:45;;;;;;;35.83;25.52;;;;;;;14.29;38.97;102949.88;5240943;28;20419;-69
2022/03/25 11:19:19;;;;;;;57.53;46.20;;;;;;;14.33;38.21;102949.09;5241739;28;20033;-71
2022/03/25 11:21:51;;;;;;;33.17;23.88;;;;;;;14.54;38.29;102940.94;5230056;28;20385;-70
2022/03/25 11:24:32;;;;;;;35.75;25.88;;;;;;;14.54;39.19;102943.72;5220919;28;20169;-69
2022/03/25 11:27:13;;;;;;;36.95;23.80;;;;;;;14.54;38.49;102940.94;5220874;28;20076;-69
2022/03/25 11:29:47;;;;;;;32.92;23.85;;;;;;;14.67;38.79;102945.25;5221011;28;20033;-69
2022/03/25 11:32:19;;;;;;;37.78;27.23;;;;;;;14.69;37.95;102937.44;5220020;28;20038;-69
2022/03/25 11:34:54;;;;;;;39.13;27.83;;;;;;;14.91;38.53;102934.56;5221113;28;20036;-69
2022/03/25 11:37:34;;;;;;;46.70;32.08;;;;;;;14.99;38.74;102931.25;5220620;28;20048;-69
2022/03/25 11:40:25;;;;;;;37.38;26.70;;;;;;;15.05;37.46;102924.56;5220974;28;20025;-69
2022/03/25 11:42:59;;;;;;;45.42;29.80;;;;;;;15.08;37.44;102923.19;5236592;28;20029;-70
2022/03/25 11:45:35;;;;;;;53.20;31.93;;;;;;;15.13;37.18;102926.84;5240413;28;20025;-69
2022/03/25 11:48:08;;;;;;;41.03;30.10;;;;;;;15.13;38.08;102924.06;5241553;28;20056;-69
2022/03/25 11:50:44;;;;;;;39.50;28.30;;;;;;;15.19;37.93;102922.16;5240983;28;20032;-70
2022/03/25 11:53:15;;;;;;;37.10;26.02;;;;;;;15.38;39.03;102920.56;5240103;28;20100;-70
2022/03/25 11:56:06;;;;;;;40.38;28.40;;;;;;;15.54;37.47;102926.22;5239520;28;20555;-69
2022/03/25 11:59:01;;;;;;;37.88;27.50;;;;;;;15.58;37.16;102914.22;5239249;28;20045;-69
2022/03/25 12:01:32;;;;;;;40.80;29.85;;;;;;;15.53;37.19;102919.81;5241163;28;20029;-69
2022/03/25 12:04:04;;;;;;;38.72;27.00;;;;;;;15.61;37.19;102919.28;5241276;28;20033;-70
2022/03/25 12:07:08;;;;;;;45.60;27.88;;;;;;;15.78;37.03;102915.47;5240252;28;20045;-70
2022/03/25 12:09:40;;;;;;;38.13;29.63;;;;;;;15.76;36.87;102907.34;5249192;28;20116;-70
2022/03/25 12:12:13;;;;;;;38.92;30.08;;;;;;;15.81;36.85;102917.69;5240236;28;20465;-70
2022/03/25 12:15:06;;;;;;;39.28;27.25;;;;;;;15.91;37.18;102914.94;5240177;28;20401;-67
2022/03/25 12:17:38;;;;;;;39.13;29.25;;;;;;;15.96;37.25;102903.75;5223121;28;20041;-69
2022/03/25 12:20:09;;;;;;;42.95;32.38;;;;;;;16.01;37.19;102909.34;5230589;28;20028;-69
2022/03/25 12:22:41;;;;;;;45.50;33.50;;;;;;;16.05;37.65;102907.69;5228713;28;20171;-69
2022/03/25 12:25:17;;;;;;;49.53;34.05;;;;;;;16.08;37.63;102909.94;5229423;28;20026;-67
2022/03/25 12:27:52;;;;;;;42.00;32.42;;;;;;;16.12;37.60;102914.97;5232888;28;20022;-68
2022/03/25 12:30:35;;;;;;;41.30;31.58;;;;;;;16.46;37.87;102906.88;5240599;28;20128;-68
2022/03/25 12:33:08;;;;;;;41.75;29.77;;;;;;;16.35;37.29;102894.84;5231575;28;20093;-68
2022/03/25 12:35:40;;;;;;;43.03;32.25;;;;;;;16.44;37.05;102892.34;5225928;28;20044;-69
2022/03/25 12:38:19;;;;;;;37.70;30.15;;;;;;;16.50;36.53;102894.00;5240504;28;20431;-70
2022/03/25 12:40:52;;;;;;;45.17;30.92;;;;;;;16.50;36.44;102889.25;5233205;28;20057;-69
2022/03/25 12:43:30;;;;;;;38.40;29.02;;;;;;;16.69;37.13;102885.84;5225018;28;20113;-69
2022/03/25 12:46:09;;;;;;;43.42;33.15;;;;;;;16.76;36.58;102886.41;5239962;28;20064;-70
2022/03/25 12:48:41;;;;;;;42.85;32.88;;;;;;;16.89;36.34;102885.88;5243703;28;20037;-70
2022/03/25 12:51:13;;;;;;;51.35;42.03;;;;;;;16.88;36.47;102884.19;5225693;28;20052;-70
2022/03/25 12:53:48;;;;;;;49.53;37.75;;;;;;;16.89;36.61;102874.66;5223968;28;20108;-70
2022/03/25 12:56:19;;;;;;;45.28;33.28;;;;;;;16.97;36.51;102880.81;5223961;28;20025;-71
2022/03/25 12:58:53;;;;;;;41.15;31.20;;;;;;;17.03;36.11;102874.91;5232554;28;20055;-70
2022/03/25 13:01:24;;;;;;;49.22;34.47;;;;;;;17.14;36.40;102870.94;5244036;28;20029;-70
2022/03/25 13:03:58;;;;;;;41.92;33.45;;;;;;;17.33;37.02;102882.41;5239460;28;20079;-70
2022/03/25 13:06:29;;;;;;;45.05;34.67;;;;;;;17.37;36.53;102880.69;5239512;28;20064;-70
2022/03/25 13:09:02;;;;;;;51.47;35.78;;;;;;;17.53;37.46;102870.22;5222532;28;20446;-69
2022/03/25 13:11:35;;;;;;;47.60;34.35;;;;;;;17.47;35.85;102873.34;5223517;28;20457;-70
2022/03/25 13:14:14;;;;;;;44.97;33.53;;;;;;;17.50;35.55;102872.78;5229376;28;20064;-69
2022/03/25 13:16:47;;;;;;;39.63;33.17;;;;;;;17.68;35.45;102869.31;5243233;28;20487;-68
2022/03/25 13:19:31;;;;;;;40.95;33.10;;;;;;;17.67;35.94;102864.00;5244117;28;20483;-67
2022/03/25 13:22:18;;;;;;;45.85;34.75;;;;;;;17.66;35.78;102865.94;5240151;28;20377;-68
2022/03/25 13:24:58;;;;;;;41.97;34.25;;;;;;;17.67;35.44;102866.81;5241054;28;20519;-68
2022/03/25 13:27:29;;;;;;;43.35;31.92;;;;;;;17.77;35.45;102861.97;5227019;28;20030;-68
2022/03/25 13:30:03;;;;;;;41.58;32.13;;;;;;;18.01;34.66;102861.28;5222181;28;20021;-67
2022/03/25 13:32:38;;;;;;;60.72;47.25;;;;;;;17.85;34.84;102862.53;5222445;28;20068;-67
2022/03/25 13:35:13;;;;;;;50.33;37.03;;;;;;;17.62;34.74;102859.25;5222974;28;20056;-67
2022/03/25 13:37:45;;;;;;;45.70;33.75;;;;;;;17.32;35.59;102860.25;5222183;28;20026;-67
2022/03/25 13:40:39;;;;;;;39.92;31.38;;;;;;;17.23;35.97;102857.19;5222698;28;20400;-67
2022/03/25 13:43:13;;;;;;;46.75;32.75;;;;;;;17.26;36.52;102861.41;5222774;28;20049;-67
2022/03/25 13:46:06;;;;;;;47.42;32.95;;;;;;;17.46;36.65;102849.22;5254765;28;20029;-67
2022/03/25 13:48:42;;;;;;;42.83;31.35;;;;;;;17.66;35.68;102851.09;5260805;28;20029;-68
2022/03/25 13:51:27;;;;;;;40.97;31.30;;;;;;;17.75;35.17;102853.00;5242288;28;20428;-68
2022/03/25 13:53:59;;;;;;;40.05;30.67;;;;;;;17.66;34.69;102848.28;5238983;28;20026;-67
2022/03/25 13:56:38;;;;;;;59.45;48.03;;;;;;;17.50;37.27;102844.72;5222103;28;20037;-68
2022/03/25 13:59:24;;;;;;;39.53;33.03;;;;;;;17.41;35.67;102852.06;5222266;28;20032;-67
2022/03/25 14:01:57;;;;;;;36.20;29.88;;;;;;;17.23;34.91;102845.97;5222546;28;20369;-67
2022/03/25 14:04:30;;;;;;;35.97;28.05;;;;;;;17.33;36.23;102840.31;5222282;28;20430;-68
2022/03/25 14:07:03;;;;;;;41.90;30.02;;;;;;;17.39;37.79;102827.94;5221659;28;20026;-67
2022/03/25 14:09:39;;;;;;;38.15;30.17;;;;;;;17.46;34.23;102832.38;5222352;28;20344;-67
2022/03/25 14:12:13;;;;;;;39.63;30.02;;;;;;;17.61;34.45;102835.13;5222441;28;20429;-68
2022/03/25 14:14:51;;;;;;;40.25;31.02;;;;;;;17.75;34.30;102835.34;5230695;28;20041;-67
2022/03/25 14:17:33;;;;;;;36.22;30.33;;;;;;;17.80;34.25;102827.75;5239019;28;20112;-68
2022/03/25 14:20:15;;;;;;;42.58;29.55;;;;;;;17.77;33.92;102833.91;5235156;28;20481;-67
2022/03/25 14:22:52;;;;;;;38.40;31.10;;;;;;;17.72;34.50;102822.72;5242674;28;20029;-68
2022/03/25 14:25:30;;;;;;;41.53;29.23;;;;;;;17.78;34.62;102829.97;5243001;28;20377;-71
2022/03/25 14:28:10;;;;;;;40.90;30.45;;;;;;;17.87;33.17;102820.94;5236725;28;20112;-69
2022/03/25 14:30:41;;;;;;;41.53;29.77;;;;;;;17.92;33.53;102818.09;5238759;28;20392;-69
2022/03/25 14:33:13;;;;;;;35.42;27.30;;;;;;;18.05;35.02;102809.03;5237240;28;20032;-69
2022/03/25 14:35:44;;;;;;;36.15;27.92;;;;;;;17.85;32.64;102812.00;5221339;28;20022;-69
2022/03/25 14:38:16;;;;;;;35.17;28.35;;;;;;;17.84;32.93;102808.34;5232148;28;20036;-68
2022/03/25 14:40:47;;;;;;;37.58;29.92;;;;;;;17.72;33.48;102811.50;5241238;28;20068;-67
2022/03/25 14:43:18;;;;;;;49.08;36.75;;;;;;;17.60;32.45;102813.81;5262434;28;20496;-69
2022/03/25 14:45:50;;;;;;;36.63;26.67;;;;;;;17.82;33.86;102810.63;5250614;28;20041;-68
2022/03/25 14:48:21;;;;;;;68.75;53.63;;;;;;;18.03;33.89;102805.69;5237421;28;20030;-68
2022/03/25 14:50:55;;;;;;;58.92;48.15;;;;;;;18.10;32.95;102809.00;5221529;28;20485;-68
2022/03/25 14:53:27;;;;;;;37.30;30.85;;;;;;;18.08;33.50;102807.63;5221457;28;20034;-69
2022/03/25 14:55:58;;;;;;;40.45;29.88;;;;;;;18.18;33.36;102811.19;5225542;28;20350;-70
2022/03/25 14:58:29;;;;;;;37.83;29.48;;;;;;;18.19;33.30;102807.22;5220823;28;20120;-71
2022/03/25 15:01:01;;;;;;;37.47;28.85;;;;;;;18.13;33.31;102802.78;5221217;28;20481;-69
2022/03/25 15:03:32;;;;;;;37.08;27.70;;;;;;;18.20;34.18;102794.88;5220739;28;20516;-68
2022/03/25 15:06:03;;;;;;;36.70;26.30;;;;;;;17.69;34.76;102797.19;5222055;28;20033;-67
2022/03/25 15:08:35;;;;;;;35.83;26.60;;;;;;;17.74;33.71;102795.22;5229686;28;20025;-67
2022/03/25 15:11:06;;;;;;;37.25;28.40;;;;;;;17.62;33.76;102799.50;5241515;28;20026;-67
2022/03/25 15:13:38;;;;;;;34.80;27.15;;;;;;;17.66;34.04;102798.59;5241533;28;20492;-67
2022/03/25 15:16:12;;;;;;;32.13;25.00;;;;;;;17.80;33.66;102793.22;5240907;28;20477;-67
2022/03/25 15:18:44;;;;;;;34.03;24.50;;;;;;;18.02;34.05;102799.25;5238480;28;20050;-67
2022/03/25 15:21:15;;;;;;;31.55;23.95;;;;;;;18.24;33.07;102792.31;5231276;28;20381;-66
2022/03/25 15:23:47;;;;;;;27.75;22.15;;;;;;;18.21;33.17;102778.88;5238038;28;20028;-67
2022/03/25 15:26:20;;;;;;;36.17;25.70;;;;;;;18.24;31.94;102781.91;5239904;28;20029;-68
2022/03/25 15:28:51;;;;;;;34.10;26.48;;;;;;;18.30;31.91;102779.03;5241128;28;20041;-67
2022/03/25 15:34:30;;;;;;;36.20;26.58;;;;;;;18.20;33.09;102777.16;5221761;28;20434;-68
2022/03/25 15:37:04;;;;;;;35.88;27.90;;;;;;;18.05;33.62;102780.97;5239385;28;20036;-68
2022/03/25 15:42:25;;;;;;;35.75;27.10;;;;;;;18.03;34.44;102774.81;5240575;28;20485;-67
2022/03/25 15:44:56;;;;;;;45.78;37.67;;;;;;;17.99;33.52;102782.13;5235521;28;20029;-67
2022/03/25 15:47:29;;;;;;;33.35;27.15;;;;;;;17.77;34.35;102777.78;5223592;28;20022;-67
2022/03/25 15:50:00;;;;;;;32.83;26.77;;;;;;;17.98;33.98;102777.66;5220038;28;20049;-69
2022/03/25 15:52:31;;;;;;;38.35;27.77;;;;;;;18.00;33.92;102766.97;5219467;28;20053;-67
2022/03/25 15:55:05;;;;;;;37.08;27.70;;;;;;;17.97;34.38;102768.41;5236175;28;20173;-67
2022/03/25 15:57:51;;;;;;;35.47;25.05;;;;;;;17.95;33.96;102767.03;5227588;28;20119;-68
2022/03/25 16:00:26;;;;;;;46.08;37.15;;;;;;;18.00;33.92;102772.59;5220218;28;20030;-66
2022/03/25 16:02:59;;;;;;;36.70;25.42;;;;;;;17.89;33.75;102773.78;5229718;28;20120;-66
2022/03/25 16:05:33;;;;;;;33.85;25.60;;;;;;;17.89;33.10;102773.78;5238298;28;20049;-66
2022/03/25 16:08:09;;;;;;;39.80;25.02;;;;;;;17.85;34.58;102772.72;5239049;28;20065;-67
2022/03/25 16:10:42;;;;;;;28.00;23.02;;;;;;;17.86;34.29;102774.38;5240076;28;20037;-67
2022/03/25 16:13:14;;;;;;;32.33;24.77;;;;;;;17.80;33.62;102782.84;5238044;28;20484;-68
2022/03/25 16:15:45;;;;;;;33.90;25.02;;;;;;;17.86;34.45;102775.22;5219769;28;20477;-67
2022/03/25 16:18:16;;;;;;;28.48;23.90;;;;;;;17.70;34.26;102780.06;5220265;28;20037;-68
2022/03/25 16:20:55;;;;;;;34.97;24.98;;;;;;;17.86;35.12;102777.19;5230828;28;20510;-68
2022/03/25 16:23:28;;;;;;;33.08;25.05;;;;;;;17.72;34.28;102780.63;5232128;28;20424;-67
2022/03/25 16:25:59;;;;;;;30.40;25.80;;;;;;;17.56;34.83;102779.03;5223724;28;20035;-67
2022/03/25 16:28:31;;;;;;;33.83;26.55;;;;;;;17.50;35.10;102777.41;5227611;28;20368;-67
2022/03/25 16:31:02;;;;;;;36.67;26.20;;;;;;;17.57;35.07;102775.13;5232733;28;20033;-66
2022/03/25 16:33:33;;;;;;;32.15;25.58;;;;;;;17.48;35.84;102774.88;5243600;28;20017;-67
2022/03/25 16:36:05;;;;;;;43.22;26.52;;;;;;;17.48;35.46;102783.28;5240706;28;20121;-68
2022/03/25 16:38:37;;;;;;;33.08;26.15;;;;;;;17.32;35.42;102779.75;5224264;28;20506;-69
2022/03/25 16:41:08;;;;;;;32.65;24.98;;;;;;;17.17;35.78;102777.84;5227397;28;20026;-68
2022/03/25 16:43:43;;;;;;;32.17;24.65;;;;;;;17.24;35.82;102790.75;5242658;28;20544;-68
2022/03/25 16:46:16;;;;;;;75.50;63.92;;;;;;;17.25;35.94;102781.19;5224031;28;20045;-68
2022/03/25 16:48:47;;;;;;;36.00;26.38;;;;;;;17.07;35.70;102793.88;5225453;28;20076;-68
2022/03/25 16:51:18;;;;;;;32.60;24.30;;;;;;;16.90;35.86;102792.28;5227384;28;20408;-66
2022/03/25 16:53:51;;;;;;;33.35;25.55;;;;;;;16.92;36.80;102790.03;5223719;28;20038;-69
2022/03/25 16:56:25;;;;;;;37.00;31.92;;;;;;;16.88;37.11;102794.53;5237654;28;20038;-67
2022/03/25 16:58:57;;;;;;;38.72;28.27;;;;;;;16.85;37.60;102794.25;5243537;28;20427;-68
2022/03/25 17:01:28;;;;;;;33.22;26.80;;;;;;;16.83;36.98;102797.34;5227094;28;20101;-68
2022/03/25 17:04:00;;;;;;;33.95;25.60;;;;;;;16.78;37.70;102793.72;5224300;28;20032;-67
2022/03/25 17:06:33;;;;;;;32.30;25.30;;;;;;;16.77;37.57;102789.19;5227874;28;20022;-67
2022/03/25 17:09:05;;;;;;;33.03;25.23;;;;;;;16.62;37.41;102784.50;5228801;28;20108;-68
2022/03/25 17:11:37;;;;;;;35.70;25.00;;;;;;;16.65;37.74;102795.13;5233048;28;20048;-67
2022/03/25 17:14:08;;;;;;;32.60;26.05;;;;;;;16.58;38.16;102786.16;5244095;28;20029;-67
2022/03/25 17:16:40;;;;;;;35.42;26.80;;;;;;;16.53;38.36;102787.84;5243077;28;20532;-68
2022/03/25 17:19:12;;;;;;;39.72;24.88;;;;;;;16.46;38.42;102792.94;5229442;28;20032;-67
2022/03/25 17:21:43;;;;;;;33.30;26.77;;;;;;;16.48;38.69;102789.81;5237193;28;20029;-66
2022/03/25 17:24:18;;;;;;;32.00;25.00;;;;;;;16.35;39.11;102801.59;5236549;28;20026;-67
2022/03/25 17:26:51;;;;;;;36.03;25.48;;;;;;;16.37;39.15;102791.81;5223379;28;20532;-67
2022/03/25 17:29:23;;;;;;;35.67;25.88;;;;;;;16.26;38.97;102793.78;5221521;28;20044;-67
